Etusivu
METAR-TAF:

METAR-TAF

Lentoasemat :

Port Hawkesbury, Nova Scotia, Kanada

Leveyspiiri: 45-40N, Pituuspiiri: 061-23W, korkeus merenpinnasta: 114 m

Tämänhetkinen sää

Tämä raportti tehtiin 50 minuuttia sitten, kello 17.00 UTC
Tuuli 9 kn lännestä, vaihdellen lounaan ja pohjoisen/luoteen välillä
Lämpötila 23°C
Kosteus 47%
Ilmanpaine 1014 hPa
Näkyvyys: 14.5 km
selkeää

METAR: CYPD 181700Z AUTO 28009KT 230V340 9SM CLR 23/11 A2994 RMK SLP142 DENSITY ALT 1500FT

Aika: 14:50 (17:50 UTC)


TAF: puuttuu

Säähavainnot ja -ennusteet yli 4000 lentoasemalta (METAR- ja TAF-raportit).

Käytössä olevat sääasemat on merkitty karttaan keltaisilla ja punaisilla pisteillä.

Aseta hiiri pisteen päälle nähdäksesi sääaseman nimen.

Klikkaa sitten nähdäksesi säähavainnot ja -ennusteet.

Kartan vaihtaminen: klikkaa mustalla rastilla varustettuja vihreitä pisteitä, niin voit zoomata sisään; viivalla varustettua vihreää pistettä, niin voit zoomata ulos tai vihreitä nuolia, niin pääset viereisille kartoille.


METAR-TAF: